Time;durP1;ratioP1;P1;durP2;ratioP2;P2;SDS_P1;SDS_P2;PMS_P1;PMS_P2;Temp;Humidity;BMP_temperature;BMP_pressure;BME280_temperature;BME280_humidity;BME280_pressure;Samples;Min_cycle;Max_cycle;Signal;HPM_P1;HPM_P2
2021/03/20 00:00:06;;;;;;;;;;;;;;;20.24;49.55;102372.09;2094274;28;2068;-33
2021/03/20 00:01:07;;;;;;;;;;;;;;;20.25;49.64;102373.75;2096620;28;1932;-31
2021/03/20 00:02:07;;;;;;;;;;;;;;;20.24;49.48;102372.09;2098870;28;1054;-34
2021/03/20 00:03:08;;;;;;;;;;;;;;;20.25;49.56;102371.75;2093371;28;1918;-36
2021/03/20 00:04:09;;;;;;;;;;;;;;;20.25;49.45;102366.06;2096958;28;2346;-33
2021/03/20 00:05:10;;;;;;;;;;;;;;;20.24;49.46;102360.72;2092957;28;1924;-34
2021/03/20 00:06:11;;;;;;;;;;;;;;;20.24;49.61;102372.09;2094600;28;1948;-33
2021/03/20 00:07:15;;;;;;;;;;;;;;;20.26;49.46;102375.44;2090930;28;1981;-32
2021/03/20 00:08:17;;;;;;;;;;;;;;;20.25;49.63;102376.59;2094118;28;1135;-33
2021/03/20 00:09:18;;;;;;;;;;;;;;;20.26;49.51;102372.59;2096443;28;1940;-33
2021/03/20 00:10:19;;;;;;;;;;;;;;;20.27;49.49;102376.31;2097816;28;3656;-32
2021/03/20 00:11:20;;;;;;;;;;;;;;;20.25;49.45;102380.28;2093272;28;3888;-32
2021/03/20 00:12:20;;;;;;;;;;;;;;;20.26;49.45;102392.50;2093396;28;3474;-30
2021/03/20 00:13:21;;;;;;;;;;;;;;;20.26;49.48;102386.81;2092055;28;2480;-34
2021/03/20 00:14:22;;;;;;;;;;;;;;;20.25;49.48;102377.44;2094144;28;1998;-32
2021/03/20 00:15:23;;;;;;;;;;;;;;;20.27;49.44;102374.31;2095705;28;3060;-32
2021/03/20 00:16:24;;;;;;;;;;;;;;;20.28;49.55;102380.81;2091088;28;1405;-32
2021/03/20 00:17:25;;;;;;;;;;;;;;;20.28;49.55;102387.34;2096144;28;2288;-33
2021/03/20 00:18:26;;;;;;;;;;;;;;;20.27;49.50;102385.66;2091287;28;2180;-34
2021/03/20 00:19:26;;;;;;;;;;;;;;;20.28;49.58;102381.66;2098896;28;1090;-33
2021/03/20 00:20:27;;;;;;;;;;;;;;;20.28;49.52;102377.97;2094140;28;1962;-34
2021/03/20 00:21:28;;;;;;;;;;;;;;;20.27;49.44;102374.31;2095449;28;1440;-33
2021/03/20 00:22:29;;;;;;;;;;;;;;;20.28;49.53;102370.28;2098904;28;1082;-32
2021/03/20 00:23:29;;;;;;;;;;;;;;;20.27;49.40;102374.31;2096888;28;1610;-32
2021/03/20 00:24:30;;;;;;;;;;;;;;;20.27;49.45;102368.63;2097286;28;3805;-34
2021/03/20 00:25:31;;;;;;;;;;;;;;;20.28;49.43;102372.31;2093394;28;2360;-31
2021/03/20 00:26:32;;;;;;;;;;;;;;;20.27;49.49;102376.31;2097680;28;1166;-32
2021/03/20 00:27:33;;;;;;;;;;;;;;;20.27;49.45;102374.31;2098418;28;1253;-36
2021/03/20 00:28:34;;;;;;;;;;;;;;;20.26;49.42;102375.44;2091523;28;1898;-34
2021/03/20 00:29:34;;;;;;;;;;;;;;;20.27;49.41;102385.66;2093204;28;1953;-34
2021/03/20 00:30:35;;;;;;;;;;;;;;;20.28;49.45;102380.81;2096435;28;1912;-31
2021/03/20 00:31:36;;;;;;;;;;;;;;;20.27;49.52;102388.50;2091841;28;1918;-35
2021/03/20 00:32:37;;;;;;;;;;;;;;;20.28;49.42;102383.66;2093195;28;2234;-33
2021/03/20 00:33:38;;;;;;;;;;;;;;;20.27;49.51;102379.16;2091999;28;1991;-32
2021/03/20 00:34:39;;;;;;;;;;;;;;;20.27;49.54;102371.47;2092789;28;1569;-36
2021/03/20 00:35:40;;;;;;;;;;;;;;;20.28;49.37;102375.13;2092366;28;2184;-33
2021/03/20 00:36:41;;;;;;;;;;;;;;;20.27;49.39;102373.47;2094894;28;2481;-32
2021/03/20 00:37:41;;;;;;;;;;;;;;;20.28;49.57;102372.31;2094024;28;1884;-35
2021/03/20 00:38:42;;;;;;;;;;;;;;;20.28;49.49;102373.13;2097721;28;3342;-32
2021/03/20 00:39:43;;;;;;;;;;;;;;;20.28;49.52;102378.81;2093732;28;2086;-33
2021/03/20 00:40:44;;;;;;;;;;;;;;;20.28;49.46;102378.81;2096371;28;2086;-30
2021/03/20 00:41:44;;;;;;;;;;;;;;;20.28;49.49;102378.81;2094486;28;3534;-34
2021/03/20 00:42:45;;;;;;;;;;;;;;;20.28;49.54;102380.81;2090102;28;2203;-34
2021/03/20 00:43:46;;;;;;;;;;;;;;;20.29;49.52;102382.50;2096494;28;2978;-32
2021/03/20 00:44:47;;;;;;;;;;;;;;;20.29;49.58;102376.81;2093471;28;2243;-31
2021/03/20 00:45:47;;;;;;;;;;;;;;;20.27;49.63;102384.84;2096918;28;3333;-35
2021/03/20 00:46:48;;;;;;;;;;;;;;;20.28;49.50;102389.34;2096178;28;1809;-33
2021/03/20 00:47:49;;;;;;;;;;;;;;;20.28;49.44;102393.03;2098673;28;1201;-33
2021/03/20 00:48:50;;;;;;;;;;;;;;;20.27;49.55;102396.19;2095915;28;2960;-34
2021/03/20 00:49:51;;;;;;;;;;;;;;;20.28;49.47;102395.03;2095051;28;3213;-31
2021/03/20 00:50:52;;;;;;;;;;;;;;;20.28;49.50;102397.88;2098724;28;1343;-32
2021/03/20 00:51:52;;;;;;;;;;;;;;;20.27;49.57;102394.19;2096842;28;3320;-33
2021/03/20 00:52:53;;;;;;;;;;;;;;;20.27;49.65;102391.34;2093870;28;3345;-35
2021/03/20 00:53:54;;;;;;;;;;;;;;;20.27;49.52;102394.19;2098268;28;1961;-32
2021/03/20 00:54:55;;;;;;;;;;;;;;;20.28;49.59;102392.19;2096844;28;3053;-31
2021/03/20 00:55:55;;;;;;;;;;;;;;;20.28;49.52;102397.88;2095548;28;3096;-37
2021/03/20 00:56:56;;;;;;;;;;;;;;;20.28;49.50;102384.50;2095299;28;3003;-33
2021/03/20 00:57:57;;;;;;;;;;;;;;;20.29;49.44;102391.03;2091857;28;2173;-33
2021/03/20 00:58:58;;;;;;;;;;;;;;;20.28;49.51;102387.34;2096437;28;3202;-37
2021/03/20 00:59:58;;;;;;;;;;;;;;;20.29;49.38;102379.66;2093105;28;3550;-33
2021/03/20 01:00:59;;;;;;;;;;;;;;;20.29;49.44;102385.34;2097367;28;2954;-32
2021/03/20 01:02:01;;;;;;;;;;;;;;;20.29;49.50;102388.19;2094203;28;2352;-32
2021/03/20 01:03:05;;;;;;;;;;;;;;;20.30;49.40;102387.06;2094741;28;3617;-36
2021/03/20 01:04:06;;;;;;;;;;;;;;;20.29;49.52;102391.91;2097340;28;3129;-34
2021/03/20 01:05:07;;;;;;;;;;;;;;;20.29;49.30;102394.75;2094350;28;1988;-33
2021/03/20 01:06:08;;;;;;;;;;;;;;;20.31;49.45;102400.09;2097568;28;1892;-35
2021/03/20 01:07:08;;;;;;;;;;;;;;;20.31;49.45;102397.25;2092101;28;2105;-35
2021/03/20 01:08:09;;;;;;;;;;;;;;;20.30;49.50;102395.59;2091807;28;1992;-31
2021/03/20 01:09:10;;;;;;;;;;;;;;;20.29;49.33;102394.75;2097718;28;1173;-33
2021/03/20 01:10:11;;;;;;;;;;;;;;;20.29;49.42;102389.06;2091343;28;2174;-31
2021/03/20 01:11:11;;;;;;;;;;;;;;;20.30;49.38;102381.38;2093076;28;3741;-35
2021/03/20 01:12:12;;;;;;;;;;;;;;;20.30;49.28;102379.38;2097814;28;1283;-33
2021/03/20 01:13:13;;;;;;;;;;;;;;;20.29;49.44;102380.53;2095844;28;1386;-33
2021/03/20 01:14:14;;;;;;;;;;;;;;;20.30;49.42;102373.69;2090526;28;2158;-32
2021/03/20 01:15:14;;;;;;;;;;;;;;;20.31;49.42;102369.66;2090797;28;1949;-36
2021/03/20 01:16:15;;;;;;;;;;;;;;;20.31;49.37;102368.84;2097195;28;2258;-37
2021/03/20 01:17:16;;;;;;;;;;;;;;;20.30;49.24;102365.16;2092947;28;2194;-34
2021/03/20 01:18:17;;;;;;;;;;;;;;;20.31;49.38;102371.69;2093215;28;1196;-32
2021/03/20 01:19:18;;;;;;;;;;;;;;;20.30;49.39;102376.53;2097442;28;1207;-35
2021/03/20 01:20:19;;;;;;;;;;;;;;;20.30;49.48;102385.03;2091080;28;2133;-35
2021/03/20 01:21:20;;;;;;;;;;;;;;;20.29;49.32;102380.53;2098257;28;1157;-38
2021/03/20 01:22:20;;;;;;;;;;;;;;;20.30;49.39;102378.53;2097495;28;1124;-36
2021/03/20 01:23:21;;;;;;;;;;;;;;;20.30;49.29;102378.53;2098542;28;1183;-34
2021/03/20 01:24:22;;;;;;;;;;;;;;;20.29;49.29;102372.00;2097513;28;2116;-39
2021/03/20 01:25:23;;;;;;;;;;;;;;;20.29;49.25;102380.53;2093683;28;1939;-38
2021/03/20 01:26:23;;;;;;;;;;;;;;;20.30;49.36;102382.22;2094904;28;1991;-35
2021/03/20 01:27:24;;;;;;;;;;;;;;;20.28;49.34;102378.81;2092770;28;2104;-35
2021/03/20 01:28:25;;;;;;;;;;;;;;;20.28;49.47;102370.28;2096350;28;1452;-35
2021/03/20 01:29:26;;;;;;;;;;;;;;;20.29;49.34;102373.97;2096615;28;1123;-37
2021/03/20 01:30:27;;;;;;;;;;;;;;;20.28;49.40;102373.13;2095596;28;1997;-32
2021/03/20 01:31:28;;;;;;;;;;;;;;;20.29;49.38;102371.13;2097190;28;1256;-33
2021/03/20 01:32:29;;;;;;;;;;;;;;;20.28;49.33;102375.97;2097439;28;1508;-40
2021/03/20 01:33:30;;;;;;;;;;;;;;;20.29;49.39;102373.97;2095048;28;2262;-40
2021/03/20 01:34:31;;;;;;;;;;;;;;;20.28;49.33;102373.13;2090502;28;2203;-30
2021/03/20 01:35:32;;;;;;;;;;;;;;;20.28;49.32;102375.97;2090407;28;2094;-34
2021/03/20 01:36:33;;;;;;;;;;;;;;;20.29;49.27;102383.38;2091400;28;3797;-36
2021/03/20 01:37:34;;;;;;;;;;;;;;;20.28;49.36;102373.13;2092149;28;2334;-34
2021/03/20 01:38:35;;;;;;;;;;;;;;;20.28;49.32;102373.13;2091928;28;1861;-36
2021/03/20 01:39:36;;;;;;;;;;;;;;;20.28;49.23;102373.13;2096050;28;1258;-34
2021/03/20 01:40:37;;;;;;;;;;;;;;;20.28;49.38;102378.81;2093370;28;2217;-35
2021/03/20 01:41:38;;;;;;;;;;;;;;;20.28;49.34;102375.97;2093023;28;1936;-37
2021/03/20 01:42:39;;;;;;;;;;;;;;;20.28;49.30;102360.94;2095050;28;2071;-37
2021/03/20 01:43:41;;;;;;;;;;;;;;;20.28;49.25;102367.44;2097288;28;2226;-36
2021/03/20 01:44:41;;;;;;;;;;;;;;;20.28;49.38;102358.09;2098400;28;1099;-35
2021/03/20 01:45:42;;;;;;;;;;;;;;;20.27;49.38;102367.78;2096685;28;1986;-35
2021/03/20 01:46:43;;;;;;;;;;;;;;;20.28;49.35;102363.78;2096323;28;1849;-39
2021/03/20 01:47:44;;;;;;;;;;;;;;;20.28;49.25;102373.13;2097492;28;2184;-34
2021/03/20 01:48:45;;;;;;;;;;;;;;;20.29;49.36;102368.28;2095334;28;2008;-39
2021/03/20 01:49:46;;;;;;;;;;;;;;;20.28;49.36;102375.13;2096300;28;1964;-37
2021/03/20 01:50:46;;;;;;;;;;;;;;;20.28;49.25;102375.13;2091355;28;2391;-33
2021/03/20 01:51:47;;;;;;;;;;;;;;;20.28;49.32;102377.97;2094577;28;1114;-32
2021/03/20 01:52:48;;;;;;;;;;;;;;;20.28;49.37;102378.81;2093791;28;1960;-32
2021/03/20 01:53:49;;;;;;;;;;;;;;;20.28;49.31;102369.47;2095231;28;2246;-39
2021/03/20 01:54:49;;;;;;;;;;;;;;;20.28;49.20;102366.63;2097414;28;1149;-33
2021/03/20 01:55:50;;;;;;;;;;;;;;;20.29;49.22;102371.13;2089952;28;2021;-35
2021/03/20 01:56:51;;;;;;;;;;;;;;;20.28;49.28;102373.13;2091807;28;2244;-37
2021/03/20 01:57:52;;;;;;;;;;;;;;;20.28;49.32;102361.78;2096933;28;2110;-34
2021/03/20 01:58:52;;;;;;;;;;;;;;;20.29;49.22;102365.44;2096663;28;1646;-35
2021/03/20 01:59:53;;;;;;;;;;;;;;;20.29;49.34;102357.78;2095660;28;1996;-35
2021/03/20 02:00:54;;;;;;;;;;;;;;;20.28;49.25;102361.78;2097034;28;2446;-34
2021/03/20 02:01:55;;;;;;;;;;;;;;;20.29;49.21;102354.06;2091626;28;1643;-32
2021/03/20 02:02:56;;;;;;;;;;;;;;;20.28;49.29;102367.44;2095115;28;1371;-35
2021/03/20 02:03:57;;;;;;;;;;;;;;;20.29;49.18;102365.44;2094848;28;2095;-34
2021/03/20 02:04:57;;;;;;;;;;;;;;;20.28;49.24;102358.09;2094710;28;1909;-33
2021/03/20 02:06:00;;;;;;;;;;;;;;;20.28;49.14;102352.41;2093086;28;1951;-37
2021/03/20 02:07:01;;;;;;;;;;;;;;;20.28;49.31;102361.78;2092463;28;2183;-35
2021/03/20 02:08:02;;;;;;;;;;;;;;;20.28;49.34;102355.25;2090141;28;2465;-34
2021/03/20 02:09:03;;;;;;;;;;;;;;;20.28;49.27;102373.13;2095945;28;1204;-35
2021/03/20 02:10:03;;;;;;;;;;;;;;;20.27;49.26;102368.63;2090006;28;2258;-34
2021/03/20 02:11:04;;;;;;;;;;;;;;;20.28;49.14;102373.13;2092083;28;3679;-33
2021/03/20 02:12:05;;;;;;;;;;;;;;;20.28;49.19;102366.63;2093486;28;1967;-39
2021/03/20 02:13:06;;;;;;;;;;;;;;;20.26;49.08;102358.38;2092714;28;2074;-35
2021/03/20 02:14:06;;;;;;;;;;;;;;;20.27;49.15;102353.56;2094355;28;2134;-36
2021/03/20 02:15:07;;;;;;;;;;;;;;;20.26;49.30;102355.53;2094321;28;2100;-37
2021/03/20 02:16:08;;;;;;;;;;;;;;;20.27;49.17;102353.56;2092755;28;2073;-36
2021/03/20 02:17:09;;;;;;;;;;;;;;;20.26;49.20;102352.69;2094094;28;1979;-36
2021/03/20 02:18:10;;;;;;;;;;;;;;;20.26;49.17;102352.69;2090720;28;1134;-32
2021/03/20 02:19:11;;;;;;;;;;;;;;;20.27;49.08;102353.56;2092088;28;2157;-40
2021/03/20 02:20:12;;;;;;;;;;;;;;;20.24;49.19;102361.56;2096914;28;2296;-38
2021/03/20 02:21:13;;;;;;;;;;;;;;;20.25;49.21;102363.22;2094063;28;1231;-35
2021/03/20 02:22:13;;;;;;;;;;;;;;;20.26;49.15;102352.69;2090940;28;2165;-35
2021/03/20 02:23:14;;;;;;;;;;;;;;;20.24;49.19;102360.72;2097765;28;1188;-34
2021/03/20 02:24:15;;;;;;;;;;;;;;;20.24;49.08;102352.19;2093781;28;2196;-36
2021/03/20 02:25:16;;;;;;;;;;;;;;;20.25;49.01;102349.03;2094035;28;2234;-38
2021/03/20 02:26:16;;;;;;;;;;;;;;;20.24;49.25;102343.66;2094816;28;1141;-34
2021/03/20 02:27:17;;;;;;;;;;;;;;;20.23;49.14;102348.50;2090045;28;1920;-35
2021/03/20 02:28:18;;;;;;;;;;;;;;;20.23;49.11;102342.81;2093151;28;2193;-35
2021/03/20 02:29:18;;;;;;;;;;;;;;;20.24;49.18;102360.72;2093311;28;2468;-33
2021/03/20 02:30:19;;;;;;;;;;;;;;;20.24;49.06;102352.19;2092462;28;2000;-40
2021/03/20 02:31:20;;;;;;;;;;;;;;;20.24;49.10;102358.72;2092793;28;1215;-35
2021/03/20 02:32:21;;;;;;;;;;;;;;;20.25;49.17;102366.06;2094437;28;2123;-37
2021/03/20 02:33:22;;;;;;;;;;;;;;;20.24;49.06;102363.56;2097296;28;1904;-36
2021/03/20 02:34:23;;;;;;;;;;;;;;;20.23;49.01;102361.84;2095861;28;2039;-34
2021/03/20 02:35:24;;;;;;;;;;;;;;;20.23;49.01;102359.88;2090719;28;2391;-36
2021/03/20 02:36:25;;;;;;;;;;;;;;;20.23;49.04;102357.03;2092735;28;3815;-35
2021/03/20 02:37:25;;;;;;;;;;;;;;;20.23;49.07;102368.41;2090031;28;2215;-36
2021/03/20 02:38:26;;;;;;;;;;;;;;;20.23;49.13;102361.84;2089571;28;2250;-36
2021/03/20 02:39:27;;;;;;;;;;;;;;;20.22;49.09;102354.50;2092256;28;2217;-31
2021/03/20 02:40:28;;;;;;;;;;;;;;;20.22;49.08;102349.66;2089910;28;2179;-34
2021/03/20 02:41:28;;;;;;;;;;;;;;;20.22;49.02;102349.66;2089791;28;2223;-34
2021/03/20 02:42:29;;;;;;;;;;;;;;;20.22;49.05;102346.81;2092011;28;2077;-37
2021/03/20 02:43:30;;;;;;;;;;;;;;;20.23;49.10;102347.63;2096503;28;1158;-35
2021/03/20 02:44:31;;;;;;;;;;;;;;;20.22;49.15;102343.97;2092875;28;2154;-36
2021/03/20 02:45:31;;;;;;;;;;;;;;;20.22;49.02;102340.28;2093603;28;1691;-36
2021/03/20 02:46:32;;;;;;;;;;;;;;;20.21;49.03;102333.75;2094795;28;1894;-34
2021/03/20 02:47:33;;;;;;;;;;;;;;;20.23;49.12;102336.28;2092079;28;2440;-38
2021/03/20 02:48:35;;;;;;;;;;;;;;;20.23;48.94;102341.97;2097033;28;2120;-36
2021/03/20 02:49:36;;;;;;;;;;;;;;;20.23;49.01;102342.81;2097526;28;1118;-32
2021/03/20 02:50:37;;;;;;;;;;;;;;;20.22;48.98;102341.13;2092116;28;2247;-36
2021/03/20 02:51:38;;;;;;;;;;;;;;;20.23;49.04;102348.50;2091747;28;2185;-34
2021/03/20 02:52:39;;;;;;;;;;;;;;;20.23;48.98;102350.47;2089708;28;2029;-36
2021/03/20 02:53:40;;;;;;;;;;;;;;;20.22;48.92;102352.47;2090041;28;2150;-34
2021/03/20 02:54:41;;;;;;;;;;;;;;;20.22;48.91;102358.16;2091882;28;1910;-35
2021/03/20 02:55:42;;;;;;;;;;;;;;;20.22;48.90;102358.16;2092375;28;2054;-37
2021/03/20 02:56:43;;;;;;;;;;;;;;;20.22;48.88;102349.66;2091706;28;2122;-34
2021/03/20 02:57:43;;;;;;;;;;;;;;;20.22;48.84;102352.47;2090021;28;2054;-31
2021/03/20 02:58:44;;;;;;;;;;;;;;;20.23;48.75;102359.00;2093154;28;2194;-36
2021/03/20 02:59:45;;;;;;;;;;;;;;;20.22;48.89;102360.16;2090944;28;1944;-35
2021/03/20 03:00:45;;;;;;;;;;;;;;;20.22;48.83;102355.31;2092421;28;1762;-34
2021/03/20 03:01:46;;;;;;;;;;;;;;;20.22;48.86;102354.50;2095138;28;2174;-31
2021/03/20 03:02:47;;;;;;;;;;;;;;;20.22;48.96;102351.66;2094581;28;3318;-33
2021/03/20 03:03:50;;;;;;;;;;;;;;;20.22;48.86;102354.50;2091686;28;2400;-34
2021/03/20 03:04:50;;;;;;;;;;;;;;;20.22;48.93;102357.34;2092411;28;2039;-35
2021/03/20 03:05:51;;;;;;;;;;;;;;;20.22;48.82;102357.34;2096309;28;1715;-34
2021/03/20 03:06:52;;;;;;;;;;;;;;;20.21;48.80;102358.50;2093958;28;1995;-34
2021/03/20 03:07:53;;;;;;;;;;;;;;;20.22;48.75;102358.16;2093177;28;2324;-35
2021/03/20 03:08:53;;;;;;;;;;;;;;;20.21;48.80;102355.66;2092712;28;1293;-35
2021/03/20 03:09:54;;;;;;;;;;;;;;;20.20;48.81;102343.41;2091311;28;1921;-35
2021/03/20 03:10:58;;;;;;;;;;;;;;;20.21;48.79;102355.66;2092740;28;3554;-38
2021/03/20 03:11:58;;;;;;;;;;;;;;;20.21;48.82;102355.66;2092665;28;1990;-31
2021/03/20 03:12:59;;;;;;;;;;;;;;;20.21;48.75;102347.97;2092544;28;1951;-36
2021/03/20 03:14:00;;;;;;;;;;;;;;;20.21;48.85;102352.81;2095339;28;2076;-35
2021/03/20 03:15:01;;;;;;;;;;;;;;;20.20;48.71;102356.78;2091671;28;1918;-35
2021/03/20 03:16:01;;;;;;;;;;;;;;;20.21;48.78;102355.66;2095167;28;2162;-30
2021/03/20 03:17:02;;;;;;;;;;;;;;;20.20;48.76;102356.78;2091955;28;2187;-36
2021/03/20 03:18:03;;;;;;;;;;;;;;;20.20;48.91;102343.41;2092794;28;2062;-37
2021/03/20 03:19:04;;;;;;;;;;;;;;;20.20;48.75;102348.25;2097356;28;1469;-35
2021/03/20 03:20:05;;;;;;;;;;;;;;;20.21;48.78;102341.44;2091266;28;2233;-32
2021/03/20 03:21:06;;;;;;;;;;;;;;;20.20;48.85;102346.25;2092576;28;1981;-31
2021/03/20 03:22:06;;;;;;;;;;;;;;;20.21;48.78;102344.28;2095718;28;2273;-33
2021/03/20 03:23:07;;;;;;;;;;;;;;;20.21;48.70;102347.13;2091535;28;2048;-34
2021/03/20 03:24:08;;;;;;;;;;;;;;;20.20;48.68;102340.56;2094301;28;1473;-37
2021/03/20 03:25:09;;;;;;;;;;;;;;;20.20;48.83;102345.41;2088760;28;2172;-35
2021/03/20 03:26:09;;;;;;;;;;;;;;;20.19;48.72;102338.91;2090187;28;2013;-35
2021/03/20 03:27:10;;;;;;;;;;;;;;;20.20;48.67;102334.06;2096351;28;1697;-38
2021/03/20 03:28:11;;;;;;;;;;;;;;;20.19;48.66;102341.75;2094691;28;2097;-32
2021/03/20 03:29:12;;;;;;;;;;;;;;;20.19;48.79;102341.75;2092937;28;1643;-35
2021/03/20 03:30:12;;;;;;;;;;;;;;;20.18;48.81;102347.72;2094498;28;1886;-36
2021/03/20 03:31:13;;;;;;;;;;;;;;;20.19;48.63;102349.44;2094622;28;2137;-33
2021/03/20 03:32:14;;;;;;;;;;;;;;;20.20;48.68;102353.94;2093849;28;1215;-35
2021/03/20 03:33:15;;;;;;;;;;;;;;;20.19;48.72;102352.28;2094497;28;1890;-37
2021/03/20 03:34:16;;;;;;;;;;;;;;;20.19;48.77;102355.13;2090252;28;2265;-33
2021/03/20 03:35:17;;;;;;;;;;;;;;;20.19;48.67;102355.13;2095470;28;2068;-35
2021/03/20 03:36:18;;;;;;;;;;;;;;;20.19;48.56;102363.63;2089189;28;3781;-33
2021/03/20 03:37:18;;;;;;;;;;;;;;;20.19;48.70;102360.78;2095913;28;1623;-35
2021/03/20 03:38:19;;;;;;;;;;;;;;;20.18;48.61;102362.81;2094455;28;1968;-36
2021/03/20 03:39:20;;;;;;;;;;;;;;;20.18;48.62;102362.81;2091780;28;2226;-38
2021/03/20 03:40:21;;;;;;;;;;;;;;;20.19;48.73;102360.78;2093226;28;1558;-33
2021/03/20 03:41:21;;;;;;;;;;;;;;;20.19;48.65;102366.47;2097224;28;1099;-35
2021/03/20 03:42:22;;;;;;;;;;;;;;;20.19;48.67;102360.78;2092873;28;2051;-40
2021/03/20 03:43:23;;;;;;;;;;;;;;;20.18;48.64;102365.66;2096916;28;1632;-34
2021/03/20 03:44:24;;;;;;;;;;;;;;;20.18;48.61;102362.81;2092648;28;1912;-34
2021/03/20 03:45:25;;;;;;;;;;;;;;;20.18;48.54;102365.66;2090375;28;1606;-33
2021/03/20 03:46:25;;;;;;;;;;;;;;;20.18;48.67;102370.47;2095348;28;1975;-37
2021/03/20 03:47:26;;;;;;;;;;;;;;;20.18;48.72;102367.63;2094796;28;2175;-36
2021/03/20 03:48:28;;;;;;;;;;;;;;;20.18;48.57;102374.16;2094356;28;1621;-33
2021/03/20 03:49:29;;;;;;;;;;;;;;;20.19;48.56;102372.16;2092262;28;1920;-35
2021/03/20 03:50:29;;;;;;;;;;;;;;;20.19;48.61;102375.84;2091166;28;2137;-33
2021/03/20 03:51:31;;;;;;;;;;;;;;;20.20;48.53;102382.38;2095837;28;1685;-35
2021/03/20 03:52:32;;;;;;;;;;;;;;;20.20;48.65;102376.69;2092182;28;2084;-36
2021/03/20 03:53:32;;;;;;;;;;;;;;;20.19;48.55;102384.38;2089679;28;2570;-33
2021/03/20 03:54:33;;;;;;;;;;;;;;;20.20;48.50;102379.53;2094798;28;1969;-34
2021/03/20 03:55:34;;;;;;;;;;;;;;;20.19;48.50;102375.84;2089614;28;2253;-33
2021/03/20 03:56:35;;;;;;;;;;;;;;;20.20;48.58;102374.69;2094287;28;1832;-34
2021/03/20 03:57:35;;;;;;;;;;;;;;;20.20;48.55;102377.53;2097222;28;1486;-34
2021/03/20 03:58:36;;;;;;;;;;;;;;;20.21;48.54;102376.38;2095336;28;2311;-36
2021/03/20 03:59:37;;;;;;;;;;;;;;;20.21;48.64;102372.72;2095362;28;1933;-35
2021/03/20 04:00:38;;;;;;;;;;;;;;;20.20;48.64;102380.38;2092671;28;2262;-36
2021/03/20 04:01:39;;;;;;;;;;;;;;;20.21;48.61;102381.22;2097782;28;1110;-36
2021/03/20 04:02:40;;;;;;;;;;;;;;;20.21;48.45;102378.38;2095343;28;1542;-35
2021/03/20 04:03:41;;;;;;;;;;;;;;;20.21;48.50;102376.38;2092622;28;1949;-33
2021/03/20 04:04:42;;;;;;;;;;;;;;;20.22;48.65;102382.91;2089501;28;1154;-33
2021/03/20 04:05:43;;;;;;;;;;;;;;;20.21;48.55;102379.22;2090217;28;2033;-36
2021/03/20 04:06:44;;;;;;;;;;;;;;;20.21;48.63;102373.53;2111385;28;2540;-36
2021/03/20 04:07:44;;;;;;;;;;;;;;;20.21;48.63;102369.88;2105083;28;3228;-34
2021/03/20 04:08:45;;;;;;;;;;;;;;;20.21;48.50;102367.88;2093205;28;2219;-34
2021/03/20 04:09:46;;;;;;;;;;;;;;;20.21;48.64;102367.88;2093260;28;1766;-34
2021/03/20 04:10:46;;;;;;;;;;;;;;;20.21;48.52;102369.88;2096733;28;4006;-36
2021/03/20 04:11:47;;;;;;;;;;;;;;;20.21;48.57;102373.53;2090242;28;1956;-33
2021/03/20 04:12:48;;;;;;;;;;;;;;;20.21;48.62;102373.53;2094942;28;2231;-37
2021/03/20 04:13:49;;;;;;;;;;;;;;;20.22;48.66;102377.22;2094577;28;1868;-34
2021/03/20 04:14:49;;;;;;;;;;;;;;;20.21;48.59;102376.38;2088398;28;1963;-36
2021/03/20 04:15:50;;;;;;;;;;;;;;;20.22;48.50;102372.38;2097297;28;1166;-35
2021/03/20 04:16:51;;;;;;;;;;;;;;;20.21;48.62;102372.72;2097512;28;1043;-34
2021/03/20 04:17:52;;;;;;;;;;;;;;;20.21;48.62;102369.88;2093350;28;2156;-32
2021/03/20 04:18:53;;;;;;;;;;;;;;;20.21;48.66;102372.72;2097370;28;1753;-37
2021/03/20 04:19:53;;;;;;;;;;;;;;;20.21;48.57;102365.03;2089590;28;2261;-36
2021/03/20 04:20:54;;;;;;;;;;;;;;;20.20;48.69;102363.31;2095672;28;1356;-31
2021/03/20 04:21:55;;;;;;;;;;;;;;;20.22;48.60;102363.00;2088386;28;2029;-37
2021/03/20 04:22:56;;;;;;;;;;;;;;;20.20;48.55;102366.16;2092490;28;2145;-34
2021/03/20 04:23:57;;;;;;;;;;;;;;;20.22;48.61;102374.38;2096406;28;1119;-33
2021/03/20 04:24:57;;;;;;;;;;;;;;;20.20;48.62;102366.16;2093223;28;2103;-34
2021/03/20 04:25:58;;;;;;;;;;;;;;;20.21;48.69;102367.03;2093065;28;1327;-33
2021/03/20 04:27:00;;;;;;;;;;;;;;;20.20;48.65;102366.16;2097162;28;1442;-33
2021/03/20 04:28:01;;;;;;;;;;;;;;;20.20;48.58;102363.31;2090209;28;2211;-36
2021/03/20 04:29:01;;;;;;;;;;;;;;;20.20;48.65;102369.00;2097262;28;1489;-34
2021/03/20 04:30:03;;;;;;;;;;;;;;;20.20;48.65;102366.16;2090523;28;1884;-34
2021/03/20 04:31:04;;;;;;;;;;;;;;;20.20;48.54;102368.16;2093192;28;1957;-32
2021/03/20 04:32:05;;;;;;;;;;;;;;;20.20;48.69;102374.69;2089272;28;1288;-33
2021/03/20 04:33:06;;;;;;;;;;;;;;;20.20;48.76;102362.47;2096773;28;1245;-34
2021/03/20 04:34:07;;;;;;;;;;;;;;;20.19;48.56;102358.78;2096405;28;2165;-35
2021/03/20 04:35:07;;;;;;;;;;;;;;;20.19;48.62;102361.63;2094049;28;2004;-33
2021/03/20 04:36:08;;;;;;;;;;;;;;;20.20;48.59;102362.47;2092023;28;1943;-33
2021/03/20 04:37:09;;;;;;;;;;;;;;;20.19;48.64;102364.47;2088492;28;3822;-36
2021/03/20 04:38:10;;;;;;;;;;;;;;;20.19;48.66;102364.47;2092183;28;2197;-32
2021/03/20 04:39:10;;;;;;;;;;;;;;;20.19;48.58;102363.63;2093289;28;2100;-35
2021/03/20 04:40:11;;;;;;;;;;;;;;;20.19;48.63;102363.63;2096237;28;1073;-34
2021/03/20 04:41:12;;;;;;;;;;;;;;;20.20;48.53;102365.31;2092060;28;2185;-38
2021/03/20 04:42:13;;;;;;;;;;;;;;;20.19;48.53;102372.16;2090729;28;2162;-35
2021/03/20 04:43:13;;;;;;;;;;;;;;;20.20;48.59;102368.16;2090369;28;2180;-34
2021/03/20 04:44:14;;;;;;;;;;;;;;;20.18;48.57;102361.94;2093923;28;1437;-36
2021/03/20 04:45:26;;;;;;;;;;;;;;;20.19;48.64;102363.63;2090806;28;2111;-34
2021/03/20 04:46:28;;;;;;;;;;;;;;;20.20;48.58;102359.63;2093979;28;2003;-33
2021/03/20 04:47:29;;;;;;;;;;;;;;;20.20;48.72;102362.47;2095774;28;1826;-31
2021/03/20 04:48:30;;;;;;;;;;;;;;;20.20;48.64;102351.09;2098671;28;1105;-34
2021/03/20 04:49:31;;;;;;;;;;;;;;;20.19;48.58;102355.94;2098584;28;1358;-33
2021/03/20 04:50:32;;;;;;;;;;;;;;;20.20;48.61;102353.94;2093073;28;1848;-34
2021/03/20 04:51:33;;;;;;;;;;;;;;;20.20;48.45;102365.31;2093306;28;1870;-34
2021/03/20 04:52:34;;;;;;;;;;;;;;;20.20;48.61;102359.63;2094344;28;2063;-32
2021/03/20 04:53:34;;;;;;;;;;;;;;;20.21;48.66;102367.03;2095902;28;1859;-35
2021/03/20 04:54:35;;;;;;;;;;;;;;;20.21;48.63;102367.03;2092420;28;1969;-35
2021/03/20 04:55:36;;;;;;;;;;;;;;;20.21;48.54;102367.88;2096908;28;1363;-34
2021/03/20 04:56:37;;;;;;;;;;;;;;;20.22;48.61;102365.84;2098598;28;1146;-32
2021/03/20 04:57:37;;;;;;;;;;;;;;;20.22;48.62;102360.16;2094229;28;1092;-35
2021/03/20 04:58:39;;;;;;;;;;;;;;;20.22;48.57;102363.00;2091764;28;1146;-33
2021/03/20 04:59:39;;;;;;;;;;;;;;;20.23;48.60;102367.53;2090075;28;1107;-35
2021/03/20 05:00:40;;;;;;;;;;;;;;;20.23;48.56;102370.38;2095290;28;1377;-35
2021/03/20 05:01:41;;;;;;;;;;;;;;;20.22;48.64;102369.53;2097935;28;1213;-32
2021/03/20 05:02:42;;;;;;;;;;;;;;;20.23;48.57;102367.53;2092426;28;1644;-35
2021/03/20 05:03:43;;;;;;;;;;;;;;;20.22;48.62;102369.53;2096532;28;2166;-35
2021/03/20 05:04:44;;;;;;;;;;;;;;;20.21;48.68;102367.88;2091708;28;1992;-34
2021/03/20 05:05:45;;;;;;;;;;;;;;;20.22;48.58;102371.53;2093014;28;1394;-35
2021/03/20 05:06:46;;;;;;;;;;;;;;;20.23;48.67;102373.22;2097673;28;1343;-35
2021/03/20 05:07:47;;;;;;;;;;;;;;;20.21;48.64;102373.53;2097655;28;1166;-35
2021/03/20 05:08:47;;;;;;;;;;;;;;;20.22;48.66;102375.22;2096085;28;1390;-34
2021/03/20 05:09:48;;;;;;;;;;;;;;;20.22;48.58;102365.84;2097456;28;1099;-36
2021/03/20 05:10:53;;;;;;;;;;;;;;;20.22;48.70;102371.53;2096830;28;3794;-37
2021/03/20 05:11:53;;;;;;;;;;;;;;;20.22;48.65;102374.38;2094617;28;1094;-38
2021/03/20 05:12:54;;;;;;;;;;;;;;;20.22;48.71;102377.22;2093404;28;1499;-31
2021/03/20 05:13:55;;;;;;;;;;;;;;;20.20;48.76;102366.16;2093675;28;1354;-35
2021/03/20 05:14:56;;;;;;;;;;;;;;;20.22;48.71;102374.38;2095669;28;2092;-35
2021/03/20 05:15:57;;;;;;;;;;;;;;;20.21;48.63;102367.88;2096005;28;1081;-35
2021/03/20 05:16:57;;;;;;;;;;;;;;;20.21;48.78;102372.72;2098416;28;1177;-34